Time;durP1;ratioP1;P1;durP2;ratioP2;P2;SDS_P1;SDS_P2;PMS_P1;PMS_P2;Temp;Humidity;BMP_temperature;BMP_pressure;BME280_temperature;BME280_humidity;BME280_pressure;Samples;Min_cycle;Max_cycle;Signal;HPM_P1;HPM_P2
2022/10/21 00:01:17;;;;;;;7.90;6.23;;;12.70;77.70;;;;;;5085590;28;20194;-58
2022/10/21 00:03:43;;;;;;;8.70;6.30;;;12.60;77.90;;;;;;5100792;28;20266;-58
2022/10/21 00:06:09;;;;;;;12.80;6.67;;;12.60;77.80;;;;;;5076931;28;20193;-58
2022/10/21 00:08:35;;;;;;;9.57;5.90;;;12.60;77.70;;;;;;5074755;28;20181;-58
2022/10/21 00:11:03;;;;;;;12.63;7.87;;;12.60;77.90;;;;;;5075274;28;20182;-58
2022/10/21 00:13:31;;;;;;;10.33;6.73;;;12.60;77.50;;;;;;5069480;28;20185;-58
2022/10/21 00:16:01;;;;;;;9.27;6.83;;;12.60;77.80;;;;;;5090957;28;20214;-57
2022/10/21 00:18:28;;;;;;;11.43;7.73;;;12.60;77.80;;;;;;5072405;28;20284;-58
2022/10/21 00:20:54;;;;;;;9.90;7.37;;;12.60;77.70;;;;;;5052945;28;20185;-58
2022/10/21 00:23:20;;;;;;;12.47;8.23;;;12.70;77.80;;;;;;5089068;28;20216;-57
2022/10/21 00:25:45;;;;;;;10.13;7.87;;;12.70;77.50;;;;;;5048976;28;20485;-57
2022/10/21 00:28:11;;;;;;;11.90;7.30;;;12.70;77.20;;;;;;5085395;28;20204;-57
2022/10/21 00:30:43;;;;;;;9.57;7.73;;;12.70;77.30;;;;;;5086168;28;20190;-58
2022/10/21 00:33:08;;;;;;;10.53;7.40;;;12.80;77.50;;;;;;5061656;28;20185;-57
2022/10/21 00:35:34;;;;;;;10.27;8.17;;;12.80;77.70;;;;;;5077017;28;20218;-58
2022/10/21 00:38:00;;;;;;;13.63;7.77;;;12.80;77.70;;;;;;5073058;28;20260;-58
2022/10/21 00:40:25;;;;;;;9.27;7.80;;;12.80;77.60;;;;;;5056809;28;20221;-58
2022/10/21 00:42:51;;;;;;;11.83;8.50;;;12.80;77.50;;;;;;5052618;28;20233;-57
2022/10/21 00:45:23;;;;;;;15.47;8.50;;;12.70;77.30;;;;;;5050871;28;20187;-57
2022/10/21 00:48:03;;;;;;;9.37;7.57;;;12.80;77.40;;;;;;5049777;28;20193;-57
2022/10/21 00:50:33;;;;;;;12.43;8.23;;;12.80;77.30;;;;;;5044102;28;20186;-57
2022/10/21 00:53:00;;;;;;;9.90;8.17;;;12.80;77.00;;;;;;5056213;28;20205;-58
2022/10/21 00:55:31;;;;;;;11.93;8.93;;;12.70;77.20;;;;;;5049468;28;20200;-58
2022/10/21 00:57:57;;;;;;;13.67;8.70;;;12.80;77.40;;;;;;5046130;28;20193;-58
2022/10/21 01:00:22;;;;;;;11.87;7.93;;;12.70;77.20;;;;;;5050005;28;20193;-58
2022/10/21 01:02:48;;;;;;;11.60;8.40;;;12.60;77.40;;;;;;5055789;28;20221;-58
2022/10/21 01:05:15;;;;;;;12.43;8.53;;;12.70;77.60;;;;;;5045316;28;20197;-58
2022/10/21 01:07:41;;;;;;;11.47;8.20;;;12.70;77.70;;;;;;5043369;28;20272;-57
2022/10/21 01:10:07;;;;;;;12.40;8.47;;;12.70;77.70;;;;;;5068465;28;20202;-57
2022/10/21 01:12:45;;;;;;;13.67;9.30;;;12.80;77.60;;;;;;5081507;28;20200;-57
2022/10/21 01:15:25;;;;;;;11.30;8.80;;;12.60;77.20;;;;;;5074056;28;20193;-58
2022/10/21 01:17:54;;;;;;;11.93;8.13;;;12.60;77.60;;;;;;5059250;28;20219;-58
2022/10/21 01:20:35;;;;;;;12.33;9.63;;;12.70;77.60;;;;;;5054492;28;20218;-58
2022/10/21 01:23:24;;;;;;;9.97;8.53;;;12.70;77.60;;;;;;5063268;28;20206;-57
2022/10/21 01:26:18;;;;;;;12.43;8.70;;;12.60;77.30;;;;;;5071001;28;20193;-58
2022/10/21 01:29:05;;;;;;;13.97;9.37;;;12.60;77.70;;;;;;5062138;28;20278;-57
2022/10/21 01:31:51;;;;;;;12.33;7.70;;;12.60;77.50;;;;;;5081388;28;20181;-58
2022/10/21 01:34:52;;;;;;;16.83;8.33;;;12.60;77.80;;;;;;5073493;28;20255;-58
2022/10/21 01:37:26;;;;;;;12.43;8.67;;;12.60;77.80;;;;;;5032925;28;20190;-57
2022/10/21 01:40:19;;;;;;;16.23;9.90;;;12.70;77.90;;;;;;5086086;28;20186;-58
2022/10/21 01:43:10;;;;;;;15.63;9.27;;;12.70;77.90;;;;;;5076627;28;20213;-58
2022/10/21 01:45:45;;;;;;;11.90;10.03;;;12.70;77.80;;;;;;5086095;28;20191;-57
2022/10/21 01:48:18;;;;;;;15.47;10.20;;;12.60;77.60;;;;;;5088915;28;20226;-58
2022/10/21 01:50:57;;;;;;;16.00;10.53;;;12.60;77.60;;;;;;5088781;28;20181;-58
2022/10/21 01:53:27;;;;;;;12.73;9.27;;;12.50;77.70;;;;;;5088857;28;20212;-56
2022/10/21 01:55:56;;;;;;;14.53;9.33;;;12.50;77.80;;;;;;5096345;28;20252;-56
2022/10/21 01:58:26;;;;;;;17.40;9.37;;;12.50;77.80;;;;;;5076358;28;20193;-58
2022/10/21 02:00:56;;;;;;;15.40;8.73;;;12.50;77.70;;;;;;5082647;28;20189;-58
2022/10/21 02:03:26;;;;;;;11.67;9.03;;;12.50;77.90;;;;;;5097919;28;20201;-58
2022/10/21 02:05:52;;;;;;;12.10;9.43;;;12.50;78.10;;;;;;5094590;28;20242;-58
2022/10/21 02:08:18;;;;;;;13.13;9.53;;;12.50;78.10;;;;;;5075896;28;20193;-56
2022/10/21 02:10:51;;;;;;;12.43;9.03;;;12.60;78.10;;;;;;5081234;28;20190;-58
2022/10/21 02:13:24;;;;;;;15.60;8.93;;;12.60;77.90;;;;;;5105483;28;20275;-57
2022/10/21 02:15:55;;;;;;;15.43;8.90;;;12.60;77.80;;;;;;5098506;28;20193;-58
2022/10/21 02:18:25;;;;;;;13.47;8.87;;;12.60;77.80;;;;;;5096987;28;20186;-57
2022/10/21 02:20:55;;;;;;;13.37;9.00;;;12.60;77.80;;;;;;5083813;28;20195;-57
2022/10/21 02:23:29;;;;;;;13.87;9.33;;;12.70;77.90;;;;;;5096473;28;20219;-58
2022/10/21 02:25:55;;;;;;;12.03;9.43;;;12.60;77.80;;;;;;5099123;28;20185;-58
2022/10/21 02:28:21;;;;;;;12.40;9.53;;;12.60;77.80;;;;;;5092915;28;20242;-57
2022/10/21 02:31:16;;;;;;;14.70;9.73;;;12.60;77.50;;;;;;5091566;28;20223;-57
2022/10/21 02:34:06;;;;;;;13.03;9.20;;;12.60;77.60;;;;;;5094573;28;20185;-58
2022/10/21 02:37:11;;;;;;;16.13;10.17;;;12.50;77.90;;;;;;5090645;28;20185;-58
2022/10/21 02:40:16;;;;;;;13.73;9.70;;;12.50;77.90;;;;;;5097175;28;20188;-58
2022/10/21 02:42:51;;;;;;;12.03;10.40;;;12.50;77.80;;;;;;5092486;28;20215;-58
2022/10/21 02:45:18;;;;;;;18.20;9.50;;;12.40;77.80;;;;;;5096512;28;20184;-58
2022/10/21 02:47:43;;;;;;;12.30;10.13;;;12.30;78.10;;;;;;5078967;28;20188;-58
2022/10/21 02:50:09;;;;;;;13.37;9.93;;;12.30;78.30;;;;;;5060245;28;20194;-57
2022/10/21 02:52:35;;;;;;;10.87;9.07;;;12.40;77.90;;;;;;5084103;28;20184;-57
2022/10/21 02:55:01;;;;;;;13.03;8.60;;;12.40;78.00;;;;;;5093742;28;20196;-58
2022/10/21 02:57:26;;;;;;;13.90;9.37;;;12.40;78.20;;;;;;5096998;28;20188;-58
2022/10/21 02:59:52;;;;;;;10.80;8.73;;;12.50;78.40;;;;;;5062680;28;20241;-57
2022/10/21 03:02:18;;;;;;;13.20;9.43;;;12.50;78.40;;;;;;5072960;28;20209;-57
2022/10/21 03:04:43;;;;;;;14.93;10.40;;;12.50;78.20;;;;;;5081869;28;20204;-58
2022/10/21 03:07:09;;;;;;;17.87;11.57;;;12.50;78.00;;;;;;5064326;28;20272;-57
2022/10/21 03:09:35;;;;;;;11.67;9.57;;;12.40;77.70;;;;;;5070348;28;20207;-57
2022/10/21 03:12:00;;;;;;;17.63;10.40;;;12.50;77.40;;;;;;5066932;28;20185;-57
2022/10/21 03:14:26;;;;;;;19.03;11.80;;;12.50;77.40;;;;;;5067936;28;20192;-57
2022/10/21 03:16:52;;;;;;;13.47;10.60;;;12.50;77.10;;;;;;5087787;28;20184;-58
2022/10/21 03:19:17;;;;;;;17.27;10.47;;;12.50;77.00;;;;;;5065194;28;20275;-58
2022/10/21 03:21:43;;;;;;;12.03;10.17;;;12.40;77.00;;;;;;5065339;28;20189;-58
2022/10/21 03:24:09;;;;;;;14.23;10.83;;;12.50;76.90;;;;;;5067669;28;20732;-58
2022/10/21 03:26:35;;;;;;;13.63;11.17;;;12.40;77.00;;;;;;5101150;28;20226;-57
2022/10/21 03:29:00;;;;;;;12.00;10.47;;;12.50;77.20;;;;;;5068344;28;20231;-57
2022/10/21 03:31:26;;;;;;;14.13;9.67;;;12.50;77.30;;;;;;5088836;28;20181;-57
2022/10/21 03:33:52;;;;;;;17.10;10.73;;;12.50;77.10;;;;;;5070739;28;20261;-59
2022/10/21 03:36:18;;;;;;;13.33;11.10;;;12.50;77.40;;;;;;5080459;28;20197;-58
2022/10/21 03:38:43;;;;;;;15.27;11.10;;;12.30;76.90;;;;;;5100485;28;20189;-57
2022/10/21 03:41:09;;;;;;;17.13;10.93;;;12.40;77.10;;;;;;5096512;28;20243;-57
2022/10/21 03:43:34;;;;;;;15.40;10.90;;;12.40;77.00;;;;;;5104551;28;20253;-58
2022/10/21 03:46:00;;;;;;;13.53;9.63;;;12.40;77.20;;;;;;5092169;28;20188;-58
2022/10/21 03:48:26;;;;;;;13.27;10.70;;;12.50;77.50;;;;;;5071648;28;20639;-58
2022/10/21 03:50:53;;;;;;;15.87;10.53;;;12.50;77.70;;;;;;5062833;28;20195;-58
2022/10/21 03:53:19;;;;;;;12.23;9.67;;;12.50;77.80;;;;;;5102194;28;20288;-58
2022/10/21 03:55:44;;;;;;;14.57;11.17;;;12.50;77.90;;;;;;5083014;28;20287;-58
2022/10/21 03:58:10;;;;;;;11.90;9.77;;;12.50;78.10;;;;;;5106849;28;20200;-57
2022/10/21 04:00:36;;;;;;;14.50;10.07;;;12.50;78.10;;;;;;5064369;28;20185;-58
2022/10/21 04:03:01;;;;;;;12.53;9.40;;;12.60;78.30;;;;;;5073058;28;20223;-58
2022/10/21 04:05:27;;;;;;;10.90;8.57;;;12.50;78.40;;;;;;5070200;28;20185;-57
2022/10/21 04:07:53;;;;;;;12.67;8.93;;;12.60;78.50;;;;;;5075248;28;20196;-58
2022/10/21 04:10:19;;;;;;;10.20;9.00;;;12.50;78.50;;;;;;5086214;28;20235;-58
2022/10/21 04:12:44;;;;;;;13.93;8.50;;;12.60;78.70;;;;;;5075645;28;20253;-57
2022/10/21 04:15:12;;;;;;;12.97;9.37;;;12.50;78.80;;;;;;5069137;28;20235;-57
2022/10/21 04:17:39;;;;;;;13.07;9.67;;;12.50;78.90;;;;;;5077952;28;20193;-58
2022/10/21 04:20:05;;;;;;;10.90;8.83;;;12.50;79.00;;;;;;5069236;28;20188;-58
2022/10/21 04:22:31;;;;;;;12.83;9.33;;;12.50;79.20;;;;;;5078757;28;20273;-58
2022/10/21 04:24:57;;;;;;;16.13;9.13;;;12.60;79.20;;;;;;5089462;28;20192;-58
2022/10/21 04:27:22;;;;;;;14.73;9.90;;;12.50;78.90;;;;;;5079534;28;20196;-58
2022/10/21 04:29:49;;;;;;;10.07;8.63;;;12.50;79.00;;;;;;5092679;28;20273;-58
2022/10/21 04:32:14;;;;;;;13.87;9.67;;;12.50;78.80;;;;;;5094611;28;20189;-59
2022/10/21 04:34:40;;;;;;;16.00;10.17;;;12.50;78.90;;;;;;5093323;28;20184;-58
2022/10/21 04:37:06;;;;;;;13.40;9.13;;;12.60;79.00;;;;;;5076514;28;20306;-57
2022/10/21 04:39:31;;;;;;;14.13;9.70;;;12.50;78.70;;;;;;5071065;28;20185;-58
2022/10/21 04:41:57;;;;;;;12.90;9.67;;;12.50;78.80;;;;;;5083979;28;20220;-58
2022/10/21 04:44:23;;;;;;;13.17;8.77;;;12.60;78.90;;;;;;5091835;28;20193;-57
2022/10/21 04:46:49;;;;;;;15.27;10.20;;;12.60;78.70;;;;;;5089713;28;20184;-57
2022/10/21 04:49:14;;;;;;;12.97;9.13;;;12.50;78.80;;;;;;5105904;28;20176;-57
2022/10/21 04:51:40;;;;;;;15.37;9.60;;;12.50;78.80;;;;;;5086528;28;20208;-57
2022/10/21 04:54:06;;;;;;;13.00;9.33;;;12.50;78.90;;;;;;5074803;28;20271;-58
2022/10/21 04:56:31;;;;;;;15.57;9.33;;;12.60;78.90;;;;;;5082528;28;20190;-58
2022/10/21 04:58:57;;;;;;;16.33;9.50;;;12.50;79.00;;;;;;5063385;28;20188;-58
2022/10/21 05:01:23;;;;;;;13.10;10.10;;;12.50;79.10;;;;;;5090486;28;20215;-58
2022/10/21 05:03:48;;;;;;;12.73;8.70;;;12.50;79.00;;;;;;5081797;28;20273;-56
2022/10/21 05:06:14;;;;;;;15.83;9.70;;;12.50;78.90;;;;;;5079831;28;20189;-58
2022/10/21 05:08:40;;;;;;;12.90;9.53;;;12.50;78.90;;;;;;5078874;28;20189;-58
2022/10/21 05:11:05;;;;;;;13.50;9.90;;;12.50;78.90;;;;;;5078456;28;20211;-58
2022/10/21 05:13:32;;;;;;;13.37;10.33;;;12.50;79.00;;;;;;5084910;28;20275;-58
2022/10/21 05:16:02;;;;;;;14.77;10.97;;;12.50;79.00;;;;;;5092486;28;20238;-58
2022/10/21 05:18:29;;;;;;;15.77;11.40;;;12.50;78.90;;;;;;5089384;28;20193;-57
2022/10/21 05:20:55;;;;;;;14.73;11.50;;;12.40;78.70;;;;;;5089309;28;20197;-57
2022/10/21 05:23:21;;;;;;;16.10;11.20;;;12.40;78.80;;;;;;5096538;28;20308;-57
2022/10/21 05:25:49;;;;;;;17.43;11.23;;;12.50;78.70;;;;;;5080559;28;20196;-57
2022/10/21 05:28:15;;;;;;;12.63;10.43;;;12.50;78.70;;;;;;5078673;27;20189;-58
2022/10/21 05:30:40;;;;;;;14.87;11.00;;;12.50;78.70;;;;;;5083133;28;20253;-58
2022/10/21 05:33:06;;;;;;;13.83;10.60;;;12.40;78.60;;;;;;5063964;28;20192;-58
2022/10/21 05:35:31;;;;;;;17.37;12.03;;;12.30;79.00;;;;;;5076175;28;20197;-58
2022/10/21 05:37:57;;;;;;;16.50;12.13;;;12.30;79.10;;;;;;5076644;28;20260;-58
2022/10/21 05:40:23;;;;;;;14.23;11.60;;;12.40;79.10;;;;;;5062830;28;20346;-58
2022/10/21 05:42:49;;;;;;;18.20;12.97;;;12.40;79.00;;;;;;5072815;28;20211;-58
2022/10/21 05:45:15;;;;;;;16.60;11.20;;;12.50;78.90;;;;;;5063945;28;20184;-58
2022/10/21 05:47:40;;;;;;;15.77;11.30;;;12.50;78.80;;;;;;5055170;28;20237;-58
2022/10/21 05:50:07;;;;;;;18.37;11.40;;;12.50;78.60;;;;;;5077196;28;20192;-58
2022/10/21 05:52:33;;;;;;;14.50;11.33;;;12.50;78.50;;;;;;5078946;28;20283;-58
2022/10/21 05:54:59;;;;;;;15.70;11.47;;;12.50;78.70;;;;;;5090504;28;20275;-58
2022/10/21 05:57:25;;;;;;;16.10;11.13;;;12.50;78.80;;;;;;5081341;28;20275;-58
2022/10/21 05:59:50;;;;;;;18.20;11.00;;;12.30;79.30;;;;;;5073535;28;20193;-58
2022/10/21 06:02:16;;;;;;;13.83;11.33;;;12.30;79.40;;;;;;5088151;28;20214;-58
2022/10/21 06:04:42;;;;;;;17.03;11.37;;;12.40;79.40;;;;;;5082569;28;20189;-58
2022/10/21 06:07:07;;;;;;;18.47;11.77;;;12.30;78.70;;;;;;5078010;28;20189;-58
2022/10/21 06:09:33;;;;;;;17.63;12.53;;;12.30;78.90;;;;;;5096453;28;20194;-58
2022/10/21 06:11:59;;;;;;;19.70;13.37;;;12.30;78.90;;;;;;5077407;28;20189;-58
2022/10/21 06:14:26;;;;;;;15.93;12.77;;;12.30;78.90;;;;;;5056983;28;20200;-58
2022/10/21 06:16:51;;;;;;;18.27;12.10;;;12.30;79.00;;;;;;5087550;28;20192;-58
2022/10/21 06:19:17;;;;;;;20.27;12.33;;;12.30;78.70;;;;;;5077102;28;20204;-58
2022/10/21 06:21:43;;;;;;;17.77;12.20;;;12.00;79.30;;;;;;5066315;28;20216;-59
2022/10/21 06:24:08;;;;;;;18.63;12.43;;;12.00;79.90;;;;;;5075940;28;20216;-59
2022/10/21 06:26:34;;;;;;;15.87;11.37;;;12.10;79.70;;;;;;5088690;28;20196;-59
2022/10/21 06:29:00;;;;;;;20.83;12.77;;;12.20;79.80;;;;;;5070184;28;20263;-59
2022/10/21 06:31:25;;;;;;;14.30;12.10;;;12.30;79.50;;;;;;5082803;28;20201;-59
2022/10/21 06:33:51;;;;;;;15.37;11.83;;;12.30;79.20;;;;;;5084611;28;20210;-59
2022/10/21 06:36:17;;;;;;;15.30;11.53;;;12.30;78.60;;;;;;5063101;28;20192;-59
2022/10/21 06:38:43;;;;;;;17.17;12.57;;;12.20;79.40;;;;;;5079966;28;20200;-59
2022/10/21 06:41:12;;;;;;;15.80;12.20;;;12.20;79.50;;;;;;5083181;28;20274;-59
2022/10/21 06:43:38;;;;;;;23.33;12.17;;;12.30;79.30;;;;;;5095217;28;20212;-59
2022/10/21 06:46:07;;;;;;;17.50;12.80;;;12.40;78.90;;;;;;5092979;28;20197;-59
2022/10/21 06:48:33;;;;;;;16.03;12.43;;;12.50;79.00;;;;;;5081650;28;20211;-58
2022/10/21 06:51:02;;;;;;;18.43;13.40;;;12.50;78.50;;;;;;5093735;28;20215;-58
2022/10/21 06:53:28;;;;;;;16.37;12.30;;;12.50;78.40;;;;;;5095841;28;20216;-58
2022/10/21 06:56:08;;;;;;;18.93;12.13;;;12.50;78.10;;;;;;5093179;28;20283;-58
2022/10/21 06:58:35;;;;;;;20.23;13.33;;;12.40;78.70;;;;;;5094331;28;20194;-58
2022/10/21 07:01:11;;;;;;;15.60;12.73;;;12.50;78.90;;;;;;5087847;28;20209;-58
2022/10/21 07:03:37;;;;;;;18.37;11.40;;;12.50;78.30;;;;;;5088482;28;20219;-58
2022/10/21 07:06:03;;;;;;;19.73;12.70;;;12.30;78.70;;;;;;5085427;28;20228;-58
2022/10/21 07:08:30;;;;;;;17.80;13.37;;;12.30;78.80;;;;;;5066345;28;20188;-58
2022/10/21 07:10:56;;;;;;;19.80;12.80;;;12.20;78.80;;;;;;5089803;28;20260;-58
2022/10/21 07:13:22;;;;;;;17.37;12.90;;;12.30;78.80;;;;;;5075702;28;20306;-59
2022/10/21 07:15:57;;;;;;;19.70;12.97;;;12.30;78.90;;;;;;5082316;28;20314;-59
2022/10/21 07:18:23;;;;;;;16.50;13.10;;;12.30;79.20;;;;;;5077862;28;20192;-59
2022/10/21 07:20:48;;;;;;;19.80;13.13;;;12.40;78.60;;;;;;5060544;28;20288;-59
2022/10/21 07:23:14;;;;;;;19.03;13.87;;;12.30;78.60;;;;;;5060908;28;20251;-59
2022/10/21 07:25:40;;;;;;;19.03;13.83;;;12.40;78.70;;;;;;5062923;28;20188;-59
2022/10/21 07:28:05;;;;;;;20.63;14.00;;;12.30;79.00;;;;;;5090762;28;20196;-59
2022/10/21 07:30:37;;;;;;;19.50;13.87;;;12.30;79.30;;;;;;5068971;28;20197;-59
2022/10/21 07:33:03;;;;;;;22.03;13.40;;;12.30;78.90;;;;;;5086546;28;20192;-59
2022/10/21 07:35:28;;;;;;;27.43;14.33;;;12.20;79.20;;;;;;5072639;28;20204;-58
2022/10/21 07:37:54;;;;;;;20.27;13.40;;;12.10;78.90;;;;;;5083535;28;20211;-58
2022/10/21 07:40:19;;;;;;;22.37;14.63;;;12.20;79.20;;;;;;5093532;28;20232;-58
2022/10/21 07:42:45;;;;;;;25.07;14.63;;;12.30;78.50;;;;;;5084262;28;20217;-58
2022/10/21 07:45:11;;;;;;;18.60;13.30;;;12.40;78.70;;;;;;5076944;28;20200;-58
2022/10/21 07:47:37;;;;;;;17.20;13.03;;;12.20;78.60;;;;;;5067270;28;20200;-58
2022/10/21 07:50:03;;;;;;;18.30;13.77;;;12.20;79.10;;;;;;5082084;28;20184;-59
2022/10/21 07:52:29;;;;;;;22.30;14.87;;;12.30;79.40;;;;;;5059845;28;20192;-59
2022/10/21 07:54:54;;;;;;;17.20;13.70;;;12.20;79.20;;;;;;5062009;28;20207;-59
2022/10/21 07:57:20;;;;;;;19.90;14.43;;;12.20;79.10;;;;;;5079476;28;20260;-59
2022/10/21 07:59:45;;;;;;;22.97;15.20;;;12.40;78.80;;;;;;5073811;28;20185;-59
2022/10/21 08:02:13;;;;;;;17.97;13.60;;;12.30;78.60;;;;;;5085124;28;20208;-59
2022/10/21 08:04:39;;;;;;;19.07;14.70;;;12.30;78.60;;;;;;5091045;28;20234;-59
2022/10/21 08:07:05;;;;;;;24.30;15.93;;;12.30;78.80;;;;;;5058616;28;20189;-59
2022/10/21 08:09:31;;;;;;;18.80;15.07;;;12.30;78.50;;;;;;5071259;28;20180;-59
2022/10/21 08:11:57;;;;;;;19.13;15.80;;;12.30;79.10;;;;;;5073739;28;20260;-59
2022/10/21 08:14:23;;;;;;;24.30;13.50;;;12.40;78.70;;;;;;5086184;28;20271;-59
2022/10/21 08:16:53;;;;;;;18.10;14.30;;;12.40;78.40;;;;;;5092039;28;20302;-59
2022/10/21 08:19:22;;;;;;;19.07;14.43;;;12.50;78.60;;;;;;5069946;28;20334;-59
2022/10/21 08:21:48;;;;;;;21.83;13.20;;;12.70;78.20;;;;;;5061091;28;20196;-59
2022/10/21 08:24:14;;;;;;;17.63;13.43;;;12.80;77.80;;;;;;5089798;28;20200;-59
2022/10/21 08:26:40;;;;;;;20.60;14.83;;;12.90;77.20;;;;;;5085447;28;20215;-59
2022/10/21 08:29:05;;;;;;;21.00;14.13;;;13.00;76.60;;;;;;5073270;28;20188;-59
2022/10/21 08:31:31;;;;;;;20.57;14.27;;;13.10;76.70;;;;;;5092509;28;20197;-59
2022/10/21 08:33:57;;;;;;;26.10;16.07;;;13.10;76.40;;;;;;5062038;28;20222;-59
2022/10/21 08:36:24;;;;;;;17.73;14.33;;;12.90;76.90;;;;;;5085174;28;20197;-59
2022/10/21 08:38:51;;;;;;;23.30;14.10;;;12.80;77.50;;;;;;5090444;28;20192;-59
2022/10/21 08:41:29;;;;;;;22.93;14.50;;;13.00;77.60;;;;;;5064785;28;20265;-59
2022/10/21 08:43:59;;;;;;;20.33;14.37;;;13.00;77.70;;;;;;5081251;28;20246;-59
2022/10/21 08:46:33;;;;;;;19.40;13.83;;;13.10;77.50;;;;;;5088279;28;20180;-59
2022/10/21 08:49:12;;;;;;;19.23;14.70;;;13.00;76.70;;;;;;5086120;28;20188;-59
2022/10/21 08:51:45;;;;;;;21.27;14.53;;;12.90;77.50;;;;;;5094817;28;20229;-59
2022/10/21 08:54:20;;;;;;;19.90;14.87;;;13.00;77.20;;;;;;5076562;28;20197;-59
2022/10/21 08:56:49;;;;;;;17.93;13.70;;;12.90;77.10;;;;;;5093161;28;20187;-59
2022/10/21 08:59:23;;;;;;;19.53;13.27;;;12.90;77.40;;;;;;5088225;28;20184;-59
2022/10/21 09:02:13;;;;;;;22.20;15.43;;;13.10;77.40;;;;;;5074280;28;20210;-59
2022/10/21 09:04:50;;;;;;;22.43;15.67;;;13.20;76.60;;;;;;5085052;28;20249;-59
2022/10/21 09:07:34;;;;;;;24.10;14.83;;;13.30;77.00;;;;;;5091486;28;20180;-59
2022/10/21 09:10:09;;;;;;;21.17;14.83;;;13.30;77.00;;;;;;5083963;28;20189;-59
2022/10/21 09:12:52;;;;;;;18.33;13.87;;;13.50;76.30;;;;;;5079959;28;20185;-59
2022/10/21 09:15:46;;;;;;;18.13;14.30;;;13.60;76.00;;;;;;5092574;28;20234;-59
2022/10/21 09:18:33;;;;;;;21.07;14.23;;;13.80;75.70;;;;;;5087058;28;20180;-59
2022/10/21 09:21:13;;;;;;;17.23;14.50;;;13.70;74.90;;;;;;5094109;28;20208;-59
2022/10/21 09:24:05;;;;;;;18.33;13.77;;;13.80;75.60;;;;;;5094736;28;20292;-59
2022/10/21 09:26:41;;;;;;;15.93;13.20;;;13.50;75.60;;;;;;5088375;28;20249;-59
2022/10/21 09:29:22;;;;;;;18.87;14.30;;;13.70;75.40;;;;;;5094107;28;20193;-59
2022/10/21 09:31:48;;;;;;;18.87;14.83;;;13.70;74.60;;;;;;5095732;28;20180;-59
2022/10/21 09:34:21;;;;;;;19.63;13.57;;;13.70;74.80;;;;;;5081057;28;20188;-59
2022/10/21 09:36:51;;;;;;;19.23;15.03;;;13.90;74.80;;;;;;5096442;28;20205;-59
2022/10/21 09:39:34;;;;;;;16.47;14.17;;;14.00;74.10;;;;;;5098015;28;20190;-59
2022/10/21 09:42:00;;;;;;;21.40;13.87;;;14.00;74.30;;;;;;5094704;28;20280;-59
2022/10/21 09:44:26;;;;;;;22.20;15.17;;;14.10;74.40;;;;;;5064529;28;20216;-59
2022/10/21 09:46:52;;;;;;;19.57;14.20;;;14.10;74.40;;;;;;5078861;28;20193;-59
2022/10/21 09:49:30;;;;;;;18.37;14.97;;;13.90;73.50;;;;;;5064124;28;20280;-59
2022/10/21 09:51:58;;;;;;;18.80;15.07;;;13.80;74.30;;;;;;5094457;28;20230;-57
2022/10/21 09:54:28;;;;;;;23.57;15.00;;;13.60;74.50;;;;;;5094498;28;20223;-57
2022/10/21 09:57:00;;;;;;;18.50;14.47;;;13.70;75.10;;;;;;5094655;28;20183;-57
2022/10/21 09:59:26;;;;;;;20.17;15.17;;;13.90;74.90;;;;;;5089985;28;20346;-53
2022/10/21 10:01:54;;;;;;;20.83;15.43;;;13.90;73.90;;;;;;5074093;28;20185;-56
2022/10/21 10:04:34;;;;;;;29.90;16.17;;;14.00;73.60;;;;;;5096695;28;20200;-58
2022/10/21 10:07:02;;;;;;;20.20;15.17;;;13.90;73.60;;;;;;5095981;28;20206;-58
2022/10/21 10:09:29;;;;;;;20.10;13.77;;;14.00;73.70;;;;;;5094224;28;20207;-58
2022/10/21 10:12:01;;;;;;;20.10;14.73;;;14.10;74.60;;;;;;5092450;28;20193;-58
2022/10/21 10:14:35;;;;;;;18.87;15.00;;;14.10;73.70;;;;;;5091718;28;20180;-59
2022/10/21 10:17:27;;;;;;;20.93;15.00;;;14.10;73.70;;;;;;5087922;28;20185;-59
2022/10/21 10:20:02;;;;;;;22.17;14.97;;;14.00;73.70;;;;;;5092223;28;20234;-59
2022/10/21 10:22:57;;;;;;;19.77;14.93;;;14.20;73.50;;;;;;5089897;28;20190;-58
2022/10/21 10:25:32;;;;;;;22.40;15.00;;;14.10;73.70;;;;;;5080682;28;20189;-58
2022/10/21 10:28:08;;;;;;;22.30;15.03;;;14.20;73.50;;;;;;5096621;28;20180;-58
2022/10/21 10:30:45;;;;;;;22.87;14.90;;;14.20;72.80;;;;;;5097439;28;20188;-58
2022/10/21 10:33:18;;;;;;;19.00;14.77;;;14.30;72.40;;;;;;5083175;28;20211;-58
2022/10/21 10:35:50;;;;;;;19.57;13.73;;;14.30;72.90;;;;;;5083893;28;20614;-57
2022/10/21 10:38:31;;;;;;;18.47;14.27;;;14.40;72.50;;;;;;5082797;28;20189;-58
2022/10/21 10:41:10;;;;;;;19.93;12.67;;;14.50;72.10;;;;;;5093383;28;20274;-58
2022/10/21 10:43:45;;;;;;;20.30;14.60;;;14.80;72.80;;;;;;5094280;28;20213;-58
2022/10/21 10:46:29;;;;;;;20.03;14.70;;;14.70;71.30;;;;;;5096926;28;20184;-58
2022/10/21 10:49:02;;;;;;;18.60;13.87;;;14.70;71.40;;;;;;5101171;28;20250;-59
2022/10/21 10:51:33;;;;;;;16.63;12.93;;;14.70;71.70;;;;;;5093123;28;20199;-58
2022/10/21 10:54:19;;;;;;;20.73;13.30;;;14.90;72.30;;;;;;5092758;28;20211;-58
2022/10/21 10:56:54;;;;;;;19.20;14.27;;;14.90;72.20;;;;;;5076190;28;20181;-52
2022/10/21 10:59:24;;;;;;;18.97;14.20;;;15.20;72.40;;;;;;5087347;28;20210;-56
2022/10/21 11:01:59;;;;;;;16.17;12.27;;;15.20;71.70;;;;;;5092952;28;20188;-55
2022/10/21 11:04:38;;;;;;;17.87;12.83;;;15.30;71.30;;;;;;5090929;28;20281;-56
2022/10/21 11:07:16;;;;;;;20.07;13.77;;;15.30;71.20;;;;;;5083102;28;20244;-56
2022/10/21 11:09:42;;;;;;;16.57;13.10;;;15.20;70.80;;;;;;5094017;28;20204;-54
2022/10/21 11:12:21;;;;;;;22.27;13.00;;;14.80;71.00;;;;;;5060228;28;20220;-58
2022/10/21 11:14:55;;;;;;;16.37;14.00;;;14.80;70.20;;;;;;5085282;28;20272;-57
2022/10/21 11:17:28;;;;;;;19.23;14.23;;;14.70;71.50;;;;;;5096576;28;20198;-57
2022/10/21 11:20:02;;;;;;;15.87;12.73;;;14.60;71.00;;;;;;5074540;28;20185;-58
2022/10/21 11:22:53;;;;;;;19.07;13.83;;;14.80;72.30;;;;;;5095491;28;20189;-57
2022/10/21 11:25:26;;;;;;;16.03;13.37;;;14.60;71.10;;;;;;5086772;28;20181;-58
2022/10/21 11:28:06;;;;;;;22.23;14.80;;;14.80;71.90;;;;;;5109909;28;20247;-56
2022/10/21 11:30:44;;;;;;;21.60;14.80;;;14.90;71.20;;;;;;5114975;27;20222;-58
2022/10/21 11:33:42;;;;;;;16.87;13.57;;;15.00;70.90;;;;;;5095153;28;20238;-57
2022/10/21 11:36:16;;;;;;;20.00;12.97;;;14.80;71.30;;;;;;5087526;28;20194;-58
2022/10/21 11:39:22;;;;;;;18.33;13.67;;;15.10;71.00;;;;;;5093901;28;20183;-58
2022/10/21 11:41:56;;;;;;;19.00;14.17;;;15.10;71.30;;;;;;5087280;28;20316;-58
2022/10/21 11:44:48;;;;;;;17.57;13.13;;;15.00;71.50;;;;;;5090671;28;20213;-58
2022/10/21 11:47:17;;;;;;;15.83;13.23;;;15.10;71.20;;;;;;5086797;28;20263;-58
2022/10/21 11:50:16;;;;;;;16.30;12.60;;;15.10;70.60;;;;;;5075986;28;20177;-59
2022/10/21 11:53:10;;;;;;;15.93;12.43;;;15.10;70.30;;;;;;5088661;28;20184;-58
2022/10/21 11:56:04;;;;;;;18.23;12.50;;;15.30;70.60;;;;;;5102463;27;20603;-58
2022/10/21 11:58:54;;;;;;;14.17;10.70;;;15.40;70.00;;;;;;5068522;28;20198;-58
2022/10/21 12:01:25;;;;;;;18.23;12.13;;;15.60;70.10;;;;;;5053648;28;20240;-58
2022/10/21 12:04:33;;;;;;;14.73;12.23;;;15.60;69.10;;;;;;5057525;28;20280;-56
2022/10/21 12:07:01;;;;;;;16.67;12.40;;;15.60;69.70;;;;;;5056640;28;20248;-57
2022/10/21 12:09:48;;;;;;;14.93;11.97;;;15.70;69.90;;;;;;5059553;28;20205;-57
2022/10/21 12:12:21;;;;;;;15.47;11.90;;;15.50;69.90;;;;;;5057709;28;20202;-59
2022/10/21 12:15:13;;;;;;;14.80;11.20;;;15.60;70.10;;;;;;5097617;28;20238;-59
2022/10/21 12:17:39;;;;;;;13.57;10.63;;;15.50;69.50;;;;;;5050289;28;20273;-59
2022/10/21 12:20:12;;;;;;;12.60;10.17;;;15.60;69.90;;;;;;5082685;28;20213;-59
2022/10/21 12:22:38;;;;;;;14.70;11.03;;;15.60;70.20;;;;;;5096927;28;20184;-59
2022/10/21 12:25:25;;;;;;;15.53;11.37;;;15.40;69.70;;;;;;5085528;28;20284;-60
2022/10/21 12:28:15;;;;;;;17.60;11.00;;;15.20;70.50;;;;;;5054949;28;20197;-59
2022/10/21 12:30:52;;;;;;;17.73;12.30;;;15.30;71.00;;;;;;5061548;28;20189;-59
2022/10/21 12:33:43;;;;;;;20.00;11.67;;;15.30;70.80;;;;;;5067625;28;20193;-59
2022/10/21 12:36:24;;;;;;;18.70;12.30;;;15.30;70.80;;;;;;5060071;28;20235;-59
2022/10/21 12:38:51;;;;;;;14.90;11.53;;;15.00;71.70;;;;;;5061115;28;20191;-59
2022/10/21 12:41:23;;;;;;;15.53;11.77;;;15.10;71.60;;;;;;5060069;28;20197;-59
2022/10/21 12:44:01;;;;;;;16.77;12.57;;;15.10;70.90;;;;;;5055680;28;20191;-59
2022/10/21 12:46:43;;;;;;;15.10;11.03;;;15.20;71.80;;;;;;5055158;28;20198;-59
2022/10/21 12:49:46;;;;;;;16.10;11.70;;;15.20;72.30;;;;;;5061979;28;20190;-59
2022/10/21 12:52:21;;;;;;;20.03;12.53;;;15.20;71.60;;;;;;5087177;28;20193;-59